Time;durP1;ratioP1;P1;durP2;ratioP2;P2;SDS_P1;SDS_P2;PMS_P1;PMS_P2;Temp;Humidity;BMP_temperature;BMP_pressure;BME280_temperature;BME280_humidity;BME280_pressure;Samples;Min_cycle;Max_cycle;Signal;HPM_P1;HPM_P2
2022/07/31 00:01:07;;;;;;;6.53;3.70;;;;;;;;;;5110917;28;20112;-74
2022/07/31 00:05:22;;;;;;;6.38;4.03;;;;;;;;;;5111338;27;20394;-73
2022/07/31 00:09:51;;;;;;;7.40;4.00;;;;;;;;;;5111059;27;20401;-73
2022/07/31 00:15:25;;;;;;;6.68;4.07;;;;;;;;;;5111282;27;20489;-73
2022/07/31 00:17:51;;;;;;;5.75;3.55;;;;;;;;;;5111322;28;20024;-74
2022/07/31 00:21:15;;;;;;;8.20;4.03;;;;;;;;;;5111373;27;20481;-73
2022/07/31 00:23:41;;;;;;;5.90;4.20;;;;;;;;;;5126547;28;20028;-74
2022/07/31 00:26:07;;;;;;;6.53;4.00;;;;;;;;;;5111387;28;20051;-74
2022/07/31 00:28:33;;;;;;;5.93;3.83;;;;;;;;;;5111178;28;20031;-74
2022/07/31 00:30:59;;;;;;;6.93;3.72;;;;;;;;;;5110754;28;20098;-74
2022/07/31 00:33:35;;;;;;;6.80;3.80;;;;;;;;;;5092517;27;20493;-74
2022/07/31 00:36:01;;;;;;;7.80;3.72;;;;;;;;;;5090535;28;20425;-74
2022/07/31 00:38:27;;;;;;;5.47;2.97;;;;;;;;;;5090824;28;20461;-74
2022/07/31 00:40:53;;;;;;;5.72;3.17;;;;;;;;;;5090818;28;20522;-73
2022/07/31 00:43:19;;;;;;;5.72;3.47;;;;;;;;;;5106284;28;20418;-74
2022/07/31 00:46:59;;;;;;;5.85;3.28;;;;;;;;;;5111803;27;20473;-74
2022/07/31 00:49:25;;;;;;;7.40;4.45;;;;;;;;;;5111263;28;20024;-73
2022/07/31 00:51:51;;;;;;;6.75;4.18;;;;;;;;;;5110872;28;20051;-74
2022/07/31 00:54:17;;;;;;;6.90;3.88;;;;;;;;;;5127151;28;20044;-74
2022/07/31 00:56:43;;;;;;;5.82;3.58;;;;;;;;;;5111126;28;20027;-74
2022/07/31 00:59:09;;;;;;;6.28;3.97;;;;;;;;;;5110750;28;20031;-74
2022/07/31 01:03:33;;;;;;;4.75;3.20;;;;;;;;;;5112128;27;20381;-74
2022/07/31 01:09:33;;;;;;;9.75;4.53;;;;;;;;;;5111414;27;20423;-73
2022/07/31 01:12:52;;;;;;;6.00;4.05;;;;;;;;;;5111170;27;20401;-73
2022/07/31 01:18:14;;;;;;;7.65;3.65;;;;;;;;;;5111128;27;20392;-73
2022/07/31 01:20:43;;;;;;;8.00;3.60;;;;;;;;;;5111270;28;20409;-73
2022/07/31 01:24:03;;;;;;;9.15;4.10;;;;;;;;;;5111628;27;20396;-74
2022/07/31 01:26:50;;;;;;;7.22;4.22;;;;;;;;;;5109622;28;20058;-75
2022/07/31 01:30:32;;;;;;;5.63;3.63;;;;;;;;;;5111413;27;20392;-73
2022/07/31 01:36:36;;;;;;;5.30;3.33;;;;;;;;;;5111391;27;20400;-74
2022/07/31 01:39:03;;;;;;;6.80;3.45;;;;;;;;;;5111435;28;20387;-73
2022/07/31 01:41:32;;;;;;;7.55;3.78;;;;;;;;;;5110899;28;20024;-73
2022/07/31 01:43:58;;;;;;;5.93;3.72;;;;;;;;;;5110044;28;20494;-73
2022/07/31 01:48:32;;;;;;;7.25;3.55;;;;;;;;;;5110970;27;20448;-74
2022/07/31 01:51:00;;;;;;;6.28;4.03;;;;;;;;;;5110016;28;20451;-74
2022/07/31 01:53:46;;;;;;;5.28;3.15;;;;;;;;;;5111305;27;20380;-74
2022/07/31 02:00:26;;;;;;;7.35;3.45;;;;;;;;;;5111059;27;20447;-74
2022/07/31 02:04:32;;;;;;;6.45;3.40;;;;;;;;;;5112113;27;20938;-75
2022/07/31 02:07:56;;;;;;;7.30;3.45;;;;;;;;;;5111474;27;20405;-73
2022/07/31 02:10:23;;;;;;;6.32;3.50;;;;;;;;;;5111357;28;20545;-74
2022/07/31 02:15:31;;;;;;;7.97;3.92;;;;;;;;;;5111044;27;20454;-74
2022/07/31 02:19:21;;;;;;;4.78;3.40;;;;;;;;;;5112134;27;20442;-75
2022/07/31 02:23:00;;;;;;;5.88;3.95;;;;;;;;;;5111252;27;20393;-74
2022/07/31 02:27:30;;;;;;;5.53;3.72;;;;;;;;;;5070833;28;20419;-73
2022/07/31 02:29:58;;;;;;;6.40;3.80;;;;;;;;;;5070238;28;20090;-73
2022/07/31 02:32:25;;;;;;;7.13;4.40;;;;;;;;;;5070674;28;20025;-75
2022/07/31 02:35:39;;;;;;;7.68;4.35;;;;;;;;;;5111315;27;20924;-75
2022/07/31 02:38:06;;;;;;;6.03;3.47;;;;;;;;;;5111309;28;20032;-74
2022/07/31 02:40:55;;;;;;;6.97;3.50;;;;;;;;;;5112049;27;20465;-75
2022/07/31 02:45:59;;;;;;;7.10;4.05;;;;;;;;;;5111441;27;20389;-74
2022/07/31 02:48:25;;;;;;;5.90;3.67;;;;;;;;;;5111280;28;20019;-74
2022/07/31 02:52:03;;;;;;;6.22;4.20;;;;;;;;;;5153021;27;20115;-74
2022/07/31 02:54:29;;;;;;;6.43;4.28;;;;;;;;;;5152440;27;20077;-74
2022/07/31 02:56:55;;;;;;;6.45;4.15;;;;;;;;;;5152162;27;20375;-74
2022/07/31 02:59:21;;;;;;;6.70;3.83;;;;;;;;;;5152416;27;20466;-74
2022/07/31 03:01:47;;;;;;;5.68;3.42;;;;;;;;;;5152311;27;20031;-74
2022/07/31 03:04:13;;;;;;;5.45;3.22;;;;;;;;;;5152030;27;20048;-74
2022/07/31 03:06:40;;;;;;;6.60;3.80;;;;;;;;;;5152297;27;20572;-74
2022/07/31 03:11:17;;;;;;;5.97;3.72;;;;;;;;;;5111543;27;20855;-74
2022/07/31 03:13:44;;;;;;;5.15;3.15;;;;;;;;;;5110020;28;20452;-75
2022/07/31 03:16:11;;;;;;;5.40;3.60;;;;;;;;;;5110238;28;20028;-74
2022/07/31 03:20:12;;;;;;;5.20;3.42;;;;;;;;;;5111886;27;20446;-75
2022/07/31 03:25:07;;;;;;;6.65;4.15;;;;;;;;;;5111570;27;20389;-75
2022/07/31 03:27:33;;;;;;;6.35;3.95;;;;;;;;;;5109953;28;20024;-75
2022/07/31 03:30:00;;;;;;;5.65;3.67;;;;;;;;;;5111315;28;20028;-74
2022/07/31 03:33:07;;;;;;;6.03;3.72;;;;;;;;;;5173395;27;20478;-64
2022/07/31 03:36:00;;;;;;;6.07;3.40;;;;;;;;;;5111439;27;20393;-61
2022/07/31 03:38:26;;;;;;;5.65;3.25;;;;;;;;;;5111471;28;20442;-62
2022/07/31 03:40:52;;;;;;;8.68;3.60;;;;;;;;;;5110716;28;20042;-61
2022/07/31 03:44:55;;;;;;;6.82;3.70;;;;;;;;;;5111576;27;21004;-62
2022/07/31 03:53:15;;;;;;;7.07;3.78;;;;;;;;;;5030993;28;20440;-61
2022/07/31 03:56:51;;;;;;;5.93;3.28;;;;;;;;;;5091705;27;20436;-62
2022/07/31 03:59:18;;;;;;;5.75;3.45;;;;;;;;;;5106620;28;20028;-64
2022/07/31 04:01:44;;;;;;;6.97;3.45;;;;;;;;;;5090449;28;20523;-62
2022/07/31 04:04:12;;;;;;;6.00;3.60;;;;;;;;;;5090850;28;20086;-62
2022/07/31 04:06:39;;;;;;;7.28;3.88;;;;;;;;;;5090836;28;20082;-63
2022/07/31 04:09:05;;;;;;;7.72;4.30;;;;;;;;;;5090393;28;20020;-63
2022/07/31 04:13:19;;;;;;;8.77;4.10;;;;;;;;;;5111833;27;20412;-61
2022/07/31 04:17:35;;;;;;;9.02;3.58;;;;;;;;;;5111761;27;20454;-62
2022/07/31 04:21:10;;;;;;;5.38;3.70;;;;;;;;;;5111151;27;20461;-61
2022/07/31 04:23:36;;;;;;;6.40;3.50;;;;;;;;;;5111291;28;20016;-62
2022/07/31 04:26:03;;;;;;;5.47;3.90;;;;;;;;;;5111164;28;20031;-62
2022/07/31 04:30:10;;;;;;;6.05;3.95;;;;;;;;;;5110927;27;20469;-62
2022/07/31 04:34:27;;;;;;;7.78;4.38;;;;;;;;;;5112064;27;20392;-64
2022/07/31 04:36:54;;;;;;;5.88;4.15;;;;;;;;;;5109606;28;20402;-62
2022/07/31 04:41:44;;;;;;;6.20;3.72;;;;;;;;;;5111502;27;20310;-62
2022/07/31 04:45:28;;;;;;;5.97;3.65;;;;;;;;;;5111572;27;20393;-62
2022/07/31 04:48:25;;;;;;;6.45;3.75;;;;;;;;;;5071070;28;20395;-62
2022/07/31 04:51:54;;;;;;;7.70;3.40;;;;;;;;;;5030932;28;20424;-64
2022/07/31 05:00:43;;;;;;;5.72;3.78;;;;;;;;;;5111339;27;20473;-62
2022/07/31 05:03:09;;;;;;;5.95;3.88;;;;;;;;;;5109555;28;20452;-63
2022/07/31 05:05:35;;;;;;;5.57;3.88;;;;;;;;;;5111215;28;20479;-61
2022/07/31 05:08:01;;;;;;;4.90;3.08;;;;;;;;;;5111458;28;20062;-62
2022/07/31 05:13:12;;;;;;;7.20;3.78;;;;;;;;;;5111097;28;20453;-62
2022/07/31 05:15:38;;;;;;;6.32;3.58;;;;;;;;;;5110973;28;20020;-62
2022/07/31 05:18:06;;;;;;;4.63;3.10;;;;;;;;;;5110697;28;20069;-62
2022/07/31 05:22:42;;;;;;;5.75;3.88;;;;;;;;;;5071254;28;20451;-62
2022/07/31 05:25:08;;;;;;;6.03;3.17;;;;;;;;;;5069084;28;20028;-62
2022/07/31 05:27:34;;;;;;;5.57;3.13;;;;;;;;;;5070603;28;20033;-62
2022/07/31 05:32:05;;;;;;;6.70;3.58;;;;;;;;;;5111362;27;20388;-62
2022/07/31 05:34:31;;;;;;;5.07;3.42;;;;;;;;;;5111216;28;20099;-62
2022/07/31 05:38:53;;;;;;;5.18;3.30;;;;;;;;;;5111123;27;20231;-62
2022/07/31 05:41:19;;;;;;;5.82;3.65;;;;;;;;;;5109918;28;20073;-62
2022/07/31 05:43:45;;;;;;;7.43;3.60;;;;;;;;;;5109838;28;20024;-62
2022/07/31 05:46:44;;;;;;;5.80;3.58;;;;;;;;;;5111178;27;20427;-62
2022/07/31 05:50:23;;;;;;;5.10;3.17;;;;;;;;;;5111899;27;20462;-64
2022/07/31 05:54:53;;;;;;;4.78;3.28;;;;;;;;;;5111452;27;20419;-62
2022/07/31 05:57:19;;;;;;;5.65;3.60;;;;;;;;;;5111273;28;20472;-63
2022/07/31 05:59:45;;;;;;;6.07;3.83;;;;;;;;;;5110822;28;20472;-63
2022/07/31 06:02:12;;;;;;;5.95;3.47;;;;;;;;;;5111194;28;20030;-63
2022/07/31 06:04:38;;;;;;;6.35;3.90;;;;;;;;;;5126992;28;20020;-62
2022/07/31 06:07:04;;;;;;;5.65;3.15;;;;;;;;;;5110731;28;20026;-62
2022/07/31 06:09:30;;;;;;;5.72;3.03;;;;;;;;;;5111073;28;20099;-63
2022/07/31 06:11:56;;;;;;;8.25;4.10;;;;;;;;;;5126723;28;20514;-62
2022/07/31 06:14:22;;;;;;;5.93;3.65;;;;;;;;;;5110453;28;20043;-63
2022/07/31 06:16:49;;;;;;;6.60;3.42;;;;;;;;;;5110960;28;20035;-63
2022/07/31 06:19:36;;;;;;;9.27;3.92;;;;;;;;;;5111806;27;20434;-64
2022/07/31 06:25:15;;;;;;;7.35;4.63;;;;;;;;;;5111276;27;20450;-62
2022/07/31 06:27:41;;;;;;;6.47;3.42;;;;;;;;;;5109594;28;20433;-62
2022/07/31 06:30:07;;;;;;;7.68;4.25;;;;;;;;;;5111135;28;20060;-63
2022/07/31 06:32:34;;;;;;;7.75;4.25;;;;;;;;;;5111679;28;20103;-63
2022/07/31 06:35:00;;;;;;;7.30;3.80;;;;;;;;;;5110725;28;20027;-62
2022/07/31 06:37:26;;;;;;;5.75;3.92;;;;;;;;;;5109863;28;20028;-62
2022/07/31 06:41:47;;;;;;;8.25;4.72;;;;;;;;;;5111501;27;20401;-63
2022/07/31 06:48:14;;;;;;;10.27;6.70;;;;;;;;;;5111899;27;21088;-62
2022/07/31 06:51:17;;;;;;;13.50;7.40;;;;;;;;;;5111834;27;20397;-62
2022/07/31 06:53:43;;;;;;;11.38;7.22;;;;;;;;;;5111277;28;20031;-63
2022/07/31 06:57:32;;;;;;;12.02;7.68;;;;;;;;;;5110913;27;20389;-63
2022/07/31 07:02:38;;;;;;;11.43;7.38;;;;;;;;;;5111925;27;20393;-62
2022/07/31 07:05:05;;;;;;;12.20;7.82;;;;;;;;;;5111307;28;20031;-62
2022/07/31 07:07:31;;;;;;;10.82;7.40;;;;;;;;;;5109936;28;20047;-62
2022/07/31 07:09:57;;;;;;;12.68;7.63;;;;;;;;;;5110962;28;20058;-63
2022/07/31 07:12:23;;;;;;;11.23;7.40;;;;;;;;;;5111185;28;20081;-63
2022/07/31 07:14:49;;;;;;;12.85;7.53;;;;;;;;;;5111278;28;20020;-63
2022/07/31 07:17:16;;;;;;;10.35;7.22;;;;;;;;;;5110895;28;20020;-63
2022/07/31 07:21:06;;;;;;;11.63;6.20;;;;;;;;;;5111733;27;20458;-63
2022/07/31 07:23:32;;;;;;;10.07;6.38;;;;;;;;;;5111264;28;20020;-62
2022/07/31 07:25:58;;;;;;;10.43;6.60;;;;;;;;;;5110793;28;20047;-62
2022/07/31 07:28:44;;;;;;;10.23;6.82;;;;;;;;;;5111701;27;20458;-61
2022/07/31 07:31:10;;;;;;;10.35;7.03;;;;;;;;;;5110868;28;20023;-63
2022/07/31 07:33:37;;;;;;;10.05;6.70;;;;;;;;;;5111165;28;20094;-63
2022/07/31 07:36:03;;;;;;;13.00;7.63;;;;;;;;;;5111369;28;20020;-63
2022/07/31 07:40:02;;;;;;;11.40;8.05;;;;;;;;;;5110865;27;20446;-62
2022/07/31 07:42:28;;;;;;;11.05;7.47;;;;;;;;;;5111234;28;20020;-63
2022/07/31 07:46:26;;;;;;;13.23;9.55;;;;;;;;;;5111049;27;20765;-62
2022/07/31 07:52:42;;;;;;;12.95;8.80;;;;;;;;;;5111161;27;20673;-63
2022/07/31 07:55:09;;;;;;;13.38;9.60;;;;;;;;;;5109931;28;20030;-63
2022/07/31 07:57:38;;;;;;;14.43;10.25;;;;;;;;;;5111386;28;20028;-63
2022/07/31 08:00:09;;;;;;;14.85;11.10;;;;;;;;;;5110745;28;20490;-63
2022/07/31 08:02:36;;;;;;;16.52;10.30;;;;;;;;;;5109860;28;20024;-63
2022/07/31 08:05:02;;;;;;;13.40;9.50;;;;;;;;;;5111099;28;20085;-62
2022/07/31 08:09:13;;;;;;;14.98;11.93;;;;;;;;;;5091813;27;20440;-62
2022/07/31 08:11:39;;;;;;;15.05;10.20;;;;;;;;;;5090872;28;20036;-63
2022/07/31 08:14:05;;;;;;;14.55;10.27;;;;;;;;;;5089157;28;20020;-63
2022/07/31 08:16:31;;;;;;;14.27;10.68;;;;;;;;;;5090810;28;20024;-62
2022/07/31 08:18:57;;;;;;;13.73;9.98;;;;;;;;;;5089503;28;20028;-63
2022/07/31 08:21:24;;;;;;;15.20;10.52;;;;;;;;;;5089066;28;20066;-63
2022/07/31 08:23:51;;;;;;;15.63;11.80;;;;;;;;;;5090660;28;20096;-63
2022/07/31 08:26:17;;;;;;;15.38;11.55;;;;;;;;;;5090672;28;20043;-63
2022/07/31 08:28:43;;;;;;;15.55;10.40;;;;;;;;;;5090193;28;20085;-63
2022/07/31 08:32:19;;;;;;;14.85;10.98;;;;;;;;;;5110575;27;20448;-63
2022/07/31 08:35:55;;;;;;;14.63;10.35;;;;;;;;;;5111052;27;20866;-63
2022/07/31 08:38:21;;;;;;;14.63;9.93;;;;;;;;;;5111275;28;20032;-63
2022/07/31 08:40:47;;;;;;;15.45;10.77;;;;;;;;;;5111211;28;20027;-63
2022/07/31 08:43:14;;;;;;;12.32;8.82;;;;;;;;;;5110782;28;20020;-63
2022/07/31 08:45:41;;;;;;;14.15;9.63;;;;;;;;;;5111128;28;20095;-63
2022/07/31 08:48:08;;;;;;;14.13;10.15;;;;;;;;;;5111094;28;20045;-63
2022/07/31 08:50:34;;;;;;;12.45;9.25;;;;;;;;;;5111286;28;20046;-63
2022/07/31 08:53:02;;;;;;;14.10;10.48;;;;;;;;;;5111029;28;20087;-63
2022/07/31 08:55:29;;;;;;;12.77;9.73;;;;;;;;;;5110542;28;20032;-63
2022/07/31 08:57:55;;;;;;;13.32;9.77;;;;;;;;;;5110873;28;20062;-63
2022/07/31 09:00:21;;;;;;;13.85;9.20;;;;;;;;;;5109535;28;20471;-63
2022/07/31 09:02:48;;;;;;;12.93;9.73;;;;;;;;;;5110413;28;20490;-63
2022/07/31 09:05:15;;;;;;;12.48;9.52;;;;;;;;;;5110870;28;20024;-62
2022/07/31 09:09:19;;;;;;;13.43;8.82;;;;;;;;;;5111532;27;20796;-63
2022/07/31 09:11:50;;;;;;;12.48;8.85;;;;;;;;;;5109975;28;20024;-64
2022/07/31 09:14:35;;;;;;;12.60;8.90;;;;;;;;;;5111254;28;20023;-63
2022/07/31 09:17:03;;;;;;;12.65;8.88;;;;;;;;;;5109519;28;20028;-63
2022/07/31 09:19:42;;;;;;;10.40;7.45;;;;;;;;;;5111108;28;20031;-63
2022/07/31 09:22:25;;;;;;;14.38;7.60;;;;;;;;;;5111070;28;20091;-63
2022/07/31 09:24:52;;;;;;;10.20;7.85;;;;;;;;;;5109445;28;20027;-64
2022/07/31 09:27:18;;;;;;;9.80;7.25;;;;;;;;;;5110913;28;20024;-63
2022/07/31 09:29:47;;;;;;;9.70;6.90;;;;;;;;;;5110917;28;20030;-63
2022/07/31 09:32:20;;;;;;;11.48;7.40;;;;;;;;;;5110580;28;20098;-65
2022/07/31 09:34:48;;;;;;;10.73;7.95;;;;;;;;;;5109512;28;20028;-62
2022/07/31 09:37:18;;;;;;;12.93;8.13;;;;;;;;;;5109509;28;20028;-63
2022/07/31 09:39:49;;;;;;;10.35;7.22;;;;;;;;;;5110429;28;20429;-63
2022/07/31 09:42:15;;;;;;;12.40;7.32;;;;;;;;;;5110674;28;20027;-63
2022/07/31 09:44:42;;;;;;;10.15;7.22;;;;;;;;;;5110182;28;20016;-62
2022/07/31 09:47:21;;;;;;;10.13;7.50;;;;;;;;;;5109177;28;20467;-63
2022/07/31 09:49:58;;;;;;;9.55;7.28;;;;;;;;;;5109201;28;20043;-64
2022/07/31 09:52:25;;;;;;;10.93;7.70;;;;;;;;;;5108998;28;20022;-63
2022/07/31 09:55:08;;;;;;;9.40;7.30;;;;;;;;;;5109177;28;20049;-63
2022/07/31 09:57:36;;;;;;;10.52;7.05;;;;;;;;;;5110751;28;20024;-62
2022/07/31 10:00:03;;;;;;;10.27;6.80;;;;;;;;;;5110131;28;20016;-63
2022/07/31 10:02:30;;;;;;;10.82;7.68;;;;;;;;;;5109025;28;20027;-63
2022/07/31 10:04:56;;;;;;;11.52;7.82;;;;;;;;;;5110579;28;20024;-64
2022/07/31 10:07:27;;;;;;;12.30;6.93;;;;;;;;;;5108290;28;20051;-63
2022/07/31 10:09:56;;;;;;;10.75;7.72;;;;;;;;;;5110370;28;20023;-63
2022/07/31 10:12:22;;;;;;;10.00;7.88;;;;;;;;;;5110060;28;20027;-63
2022/07/31 10:14:50;;;;;;;11.45;7.82;;;;;;;;;;5108494;28;20024;-63
2022/07/31 10:17:21;;;;;;;10.27;7.85;;;;;;;;;;5110151;28;20039;-63
2022/07/31 10:19:49;;;;;;;11.38;7.85;;;;;;;;;;5096376;28;20024;-63
2022/07/31 10:22:18;;;;;;;10.30;8.05;;;;;;;;;;5096439;28;20016;-63
2022/07/31 10:24:46;;;;;;;11.43;7.80;;;;;;;;;;5096701;28;20016;-63
2022/07/31 10:27:14;;;;;;;10.38;8.23;;;;;;;;;;5094693;28;20467;-63
2022/07/31 10:29:40;;;;;;;12.27;8.10;;;;;;;;;;5094985;28;20503;-64
2022/07/31 10:32:07;;;;;;;10.88;7.53;;;;;;;;;;5096190;28;20024;-63
2022/07/31 10:34:33;;;;;;;11.38;8.40;;;;;;;;;;5095769;28;20472;-63
2022/07/31 10:37:03;;;;;;;10.77;7.88;;;;;;;;;;5096026;28;20054;-64
2022/07/31 10:39:41;;;;;;;11.77;8.68;;;;;;;;;;5096132;28;20054;-63
2022/07/31 10:42:10;;;;;;;10.93;7.78;;;;;;;;;;5095553;28;20020;-63
2022/07/31 10:44:41;;;;;;;10.85;8.15;;;;;;;;;;5095970;28;20032;-63
2022/07/31 10:47:13;;;;;;;12.25;8.90;;;;;;;;;;5095877;28;20035;-64
2022/07/31 10:49:43;;;;;;;12.45;8.57;;;;;;;;;;5094271;28;20034;-63
2022/07/31 10:52:10;;;;;;;11.50;8.52;;;;;;;;;;5095773;28;20036;-63
2022/07/31 10:54:43;;;;;;;11.70;8.38;;;;;;;;;;5095762;28;20035;-64
2022/07/31 10:57:20;;;;;;;15.43;9.20;;;;;;;;;;5095455;28;20020;-63
2022/07/31 10:59:46;;;;;;;12.95;8.55;;;;;;;;;;5095992;28;20103;-63
2022/07/31 11:02:12;;;;;;;10.23;7.85;;;;;;;;;;5095184;28;20024;-63
2022/07/31 11:04:38;;;;;;;11.57;8.55;;;;;;;;;;5095539;28;20024;-63
2022/07/31 11:07:14;;;;;;;12.73;8.10;;;;;;;;;;5095208;28;20476;-63
2022/07/31 11:09:40;;;;;;;11.82;8.75;;;;;;;;;;5095241;28;20016;-63
2022/07/31 11:12:26;;;;;;;13.55;9.13;;;;;;;;;;5095878;28;20024;-63
2022/07/31 11:14:53;;;;;;;10.60;8.10;;;;;;;;;;5095232;28;20028;-63
2022/07/31 11:17:29;;;;;;;11.80;9.45;;;;;;;;;;5094830;28;20498;-63
2022/07/31 11:19:56;;;;;;;11.02;8.23;;;;;;;;;;5094023;28;20024;-63
2022/07/31 11:22:22;;;;;;;11.30;8.43;;;;;;;;;;5095225;28;20016;-63
2022/07/31 11:24:55;;;;;;;10.65;8.50;;;;;;;;;;5093353;28;20111;-63
2022/07/31 11:27:31;;;;;;;11.82;8.00;;;;;;;;;;5095320;28;20031;-63
2022/07/31 11:30:03;;;;;;;11.20;8.73;;;;;;;;;;5094996;28;20028;-64
2022/07/31 11:32:29;;;;;;;;;;;;;;;;;;5094290;28;20016;-63
2022/07/31 11:34:56;;;;;;;10.65;8.27;;;;;;;;;;5094929;28;20370;-63
2022/07/31 11:37:23;;;;;;;11.88;8.88;;;;;;;;;;5094981;28;20031;-63
2022/07/31 11:39:51;;;;;;;10.70;8.43;;;;;;;;;;5095240;28;20023;-63
2022/07/31 11:42:18;;;;;;;11.98;9.65;;;;;;;;;;5094925;28;20066;-64
2022/07/31 11:44:44;;;;;;;10.00;8.00;;;;;;;;;;5094622;28;20384;-64
2022/07/31 11:47:10;;;;;;;10.98;8.48;;;;;;;;;;5094599;28;20086;-63
2022/07/31 11:49:37;;;;;;;11.00;8.70;;;;;;;;;;5094743;28;20028;-63
2022/07/31 11:52:06;;;;;;;12.40;9.65;;;;;;;;;;5094165;28;20024;-64
2022/07/31 11:54:33;;;;;;;11.57;8.30;;;;;;;;;;5094534;28;20488;-64
2022/07/31 11:56:59;;;;;;;15.65;9.60;;;;;;;;;;5094537;28;20028;-64
2022/07/31 11:59:29;;;;;;;10.85;8.75;;;;;;;;;;5094083;28;20099;-64
2022/07/31 12:02:01;;;;;;;14.18;9.45;;;;;;;;;;5093148;28;20060;-64
2022/07/31 12:04:27;;;;;;;11.90;9.25;;;;;;;;;;5094599;28;20048;-64
2022/07/31 12:06:55;;;;;;;11.77;9.38;;;;;;;;;;5093712;28;20375;-64
2022/07/31 12:09:21;;;;;;;11.05;9.45;;;;;;;;;;5094428;28;20039;-64
2022/07/31 12:11:48;;;;;;;11.90;9.10;;;;;;;;;;5094598;28;20372;-65
2022/07/31 12:14:14;;;;;;;11.93;9.15;;;;;;;;;;5093873;28;20024;-64
2022/07/31 12:16:41;;;;;;;10.30;7.80;;;;;;;;;;5094225;28;20066;-64
2022/07/31 12:19:07;;;;;;;10.93;8.32;;;;;;;;;;5094216;28;20048;-64
2022/07/31 12:21:35;;;;;;;10.55;7.78;;;;;;;;;;5092519;28;20117;-64
2022/07/31 12:24:01;;;;;;;10.88;8.05;;;;;;;;;;5094589;28;20012;-64
2022/07/31 12:26:28;;;;;;;10.15;7.88;;;;;;;;;;5092424;28;20039;-64
2022/07/31 12:28:57;;;;;;;10.85;7.60;;;;;;;;;;5093932;28;20060;-63
2022/07/31 12:31:24;;;;;;;9.38;7.55;;;;;;;;;;5093950;28;20024;-64
2022/07/31 12:33:50;;;;;;;10.48;7.80;;;;;;;;;;5092269;28;20085;-63
2022/07/31 12:36:16;;;;;;;8.50;6.55;;;;;;;;;;5093921;28;20050;-64
2022/07/31 12:38:43;;;;;;;10.13;7.35;;;;;;;;;;5094180;28;20461;-64
2022/07/31 12:41:10;;;;;;;11.38;7.47;;;;;;;;;;5093415;28;20032;-63
2022/07/31 12:43:36;;;;;;;8.75;6.82;;;;;;;;;;5093733;28;20426;-63
2022/07/31 12:46:04;;;;;;;16.45;8.02;;;;;;;;;;5093747;28;20024;-64
2022/07/31 12:48:33;;;;;;;10.52;7.28;;;;;;;;;;5093186;28;20163;-63
2022/07/31 12:51:02;;;;;;;9.45;7.40;;;;;;;;;;5092451;28;20053;-63
2022/07/31 12:53:29;;;;;;;9.18;7.22;;;;;;;;;;5092279;28;20399;-64
2022/07/31 12:55:55;;;;;;;8.32;6.60;;;;;;;;;;5091949;28;20020;-64
2022/07/31 12:58:21;;;;;;;8.77;6.15;;;;;;;;;;5092290;28;20031;-64
2022/07/31 13:00:47;;;;;;;8.90;6.25;;;;;;;;;;5092234;28;20020;-63
2022/07/31 13:03:14;;;;;;;9.27;6.47;;;;;;;;;;5091766;28;20038;-63
2022/07/31 13:05:40;;;;;;;8.18;6.25;;;;;;;;;;5093809;28;20024;-63
2022/07/31 13:08:09;;;;;;;8.55;6.20;;;;;;;;;;5093342;28;20075;-63
2022/07/31 13:10:35;;;;;;;8.27;6.10;;;;;;;;;;5091727;28;20020;-63
2022/07/31 13:13:02;;;;;;;8.77;6.32;;;;;;;;;;5092689;28;20489;-63
2022/07/31 13:15:31;;;;;;;8.70;5.90;;;;;;;;;;5093409;28;20020;-63
2022/07/31 13:17:57;;;;;;;7.57;5.18;;;;;;;;;;5092953;28;20035;-63
2022/07/31 13:20:24;;;;;;;7.65;6.05;;;;;;;;;;5092067;28;20028;-63
2022/07/31 13:22:50;;;;;;;8.65;5.70;;;;;;;;;;5092975;28;20028;-64
2022/07/31 13:25:17;;;;;;;8.18;5.07;;;;;;;;;;5093269;28;20036;-64
2022/07/31 13:27:43;;;;;;;7.85;5.75;;;;;;;;;;5093282;28;20085;-64
2022/07/31 13:30:09;;;;;;;7.68;5.47;;;;;;;;;;5093071;28;20023;-65
2022/07/31 13:32:36;;;;;;;7.22;5.20;;;;;;;;;;5093231;28;20028;-63
2022/07/31 13:35:02;;;;;;;6.82;5.03;;;;;;;;;;5093349;28;20426;-64
2022/07/31 13:37:28;;;;;;;7.20;5.28;;;;;;;;;;5092747;28;20461;-64
2022/07/31 13:39:54;;;;;;;8.02;4.90;;;;;;;;;;5093253;28;20062;-64
2022/07/31 13:42:20;;;;;;;7.03;4.82;;;;;;;;;;5091813;28;20072;-64
2022/07/31 13:44:46;;;;;;;6.70;4.97;;;;;;;;;;5092815;28;20055;-64
2022/07/31 13:47:12;;;;;;;6.78;4.60;;;;;;;;;;5091791;28;20044;-64
2022/07/31 13:49:39;;;;;;;6.43;4.70;;;;;;;;;;5093112;28;20035;-64
2022/07/31 13:52:05;;;;;;;5.82;4.10;;;;;;;;;;5091411;28;20020;-64
2022/07/31 13:54:31;;;;;;;7.18;4.38;;;;;;;;;;5094597;28;20421;-64
2022/07/31 13:56:57;;;;;;;6.75;4.03;;;;;;;;;;5096886;28;20020;-64
2022/07/31 13:59:24;;;;;;;7.20;4.57;;;;;;;;;;5096543;28;20039;-64
2022/07/31 14:01:50;;;;;;;6.15;4.40;;;;;;;;;;5095509;28;20090;-64
2022/07/31 14:04:20;;;;;;;6.97;4.50;;;;;;;;;;5096739;28;20047;-63
2022/07/31 14:06:47;;;;;;;6.30;4.45;;;;;;;;;;5096437;28;20024;-63
2022/07/31 14:09:13;;;;;;;11.32;4.72;;;;;;;;;;5096468;28;20098;-64
2022/07/31 14:11:39;;;;;;;6.32;4.18;;;;;;;;;;5096603;28;20024;-64
2022/07/31 14:14:05;;;;;;;6.45;4.47;;;;;;;;;;5096148;28;20035;-63
2022/07/31 14:16:32;;;;;;;5.93;4.00;;;;;;;;;;5096642;28;20020;-64
2022/07/31 14:18:58;;;;;;;7.47;4.63;;;;;;;;;;5096195;28;20020;-63
2022/07/31 14:21:24;;;;;;;5.75;3.75;;;;;;;;;;5095357;28;20381;-63
2022/07/31 14:23:50;;;;;;;6.70;4.47;;;;;;;;;;5096483;28;20027;-63
2022/07/31 14:26:16;;;;;;;6.85;4.05;;;;;;;;;;5095938;28;20027;-64
2022/07/31 14:28:42;;;;;;;5.78;3.75;;;;;;;;;;5096220;28;20035;-63
2022/07/31 14:31:10;;;;;;;6.28;4.13;;;;;;;;;;5094996;28;20065;-64
2022/07/31 14:33:36;;;;;;;5.97;3.95;;;;;;;;;;5095824;28;20135;-63
2022/07/31 14:36:04;;;;;;;6.15;3.90;;;;;;;;;;5096478;28;20016;-63
2022/07/31 14:38:30;;;;;;;5.65;3.40;;;;;;;;;;5096118;28;20024;-64
2022/07/31 14:40:57;;;;;;;5.38;3.63;;;;;;;;;;5095715;28;20034;-63
2022/07/31 14:43:23;;;;;;;6.10;3.65;;;;;;;;;;5096248;28;20149;-63
2022/07/31 14:45:49;;;;;;;6.57;4.03;;;;;;;;;;5096273;28;20071;-63
2022/07/31 14:48:15;;;;;;;4.50;3.50;;;;;;;;;;5095552;28;20039;-63
2022/07/31 14:50:41;;;;;;;5.50;3.72;;;;;;;;;;5094617;28;20024;-64
2022/07/31 14:53:08;;;;;;;4.53;2.97;;;;;;;;;;5094580;28;20028;-63
2022/07/31 14:55:34;;;;;;;5.70;3.63;;;;;;;;;;5095310;28;20094;-64
2022/07/31 14:58:01;;;;;;;5.30;3.63;;;;;;;;;;5095963;28;20056;-64
2022/07/31 15:00:27;;;;;;;5.15;3.30;;;;;;;;;;5096200;28;20027;-63
2022/07/31 15:02:53;;;;;;;6.65;3.50;;;;;;;;;;5095379;28;20099;-63
2022/07/31 15:05:19;;;;;;;7.93;4.00;;;;;;;;;;5095613;28;20460;-63
2022/07/31 15:07:46;;;;;;;5.80;3.83;;;;;;;;;;5095463;28;20047;-63
2022/07/31 15:10:12;;;;;;;5.97;3.63;;;;;;;;;;5095142;28;20054;-63
2022/07/31 15:12:39;;;;;;;4.78;3.42;;;;;;;;;;5094137;28;20361;-63
2022/07/31 15:15:06;;;;;;;6.07;4.00;;;;;;;;;;5095509;28;20480;-63
2022/07/31 15:17:32;;;;;;;5.70;3.70;;;;;;;;;;5093680;28;20027;-63
2022/07/31 15:19:58;;;;;;;6.10;3.85;;;;;;;;;;5095330;28;20157;-63
2022/07/31 15:22:25;;;;;;;5.78;4.07;;;;;;;;;;5093604;28;20052;-63
2022/07/31 15:24:51;;;;;;;6.15;3.75;;;;;;;;;;5095554;28;20031;-63
2022/07/31 15:27:20;;;;;;;5.90;3.85;;;;;;;;;;5095365;28;20027;-63
2022/07/31 15:29:47;;;;;;;5.80;3.97;;;;;;;;;;5094737;28;20034;-63
2022/07/31 15:32:13;;;;;;;8.13;4.45;;;;;;;;;;5095173;28;20016;-63
2022/07/31 15:34:39;;;;;;;6.40;4.35;;;;;;;;;;5095185;28;20032;-62
2022/07/31 15:37:05;;;;;;;5.57;4.00;;;;;;;;;;5094794;28;20020;-63
2022/07/31 15:39:31;;;;;;;5.65;4.15;;;;;;;;;;5093704;28;20134;-64
2022/07/31 15:41:57;;;;;;;6.82;4.43;;;;;;;;;;5094908;28;20024;-62
2022/07/31 15:44:24;;;;;;;6.47;4.55;;;;;;;;;;5093197;28;20024;-64
2022/07/31 15:46:50;;;;;;;6.15;4.35;;;;;;;;;;5094901;28;20046;-63
2022/07/31 15:49:17;;;;;;;6.50;4.40;;;;;;;;;;5094785;28;20383;-64
2022/07/31 15:51:43;;;;;;;8.20;4.78;;;;;;;;;;5093095;28;20487;-63
2022/07/31 15:54:09;;;;;;;7.80;3.85;;;;;;;;;;5094707;28;20039;-64
2022/07/31 15:56:35;;;;;;;6.78;4.20;;;;;;;;;;5093400;28;20020;-63
2022/07/31 15:59:01;;;;;;;7.90;4.78;;;;;;;;;;5094231;28;20095;-64
2022/07/31 16:01:27;;;;;;;8.00;5.20;;;;;;;;;;5094550;28;20442;-63
2022/07/31 16:03:53;;;;;;;6.82;4.68;;;;;;;;;;5094471;28;20047;-64
2022/07/31 16:06:19;;;;;;;7.30;5.03;;;;;;;;;;5094157;28;20024;-64
2022/07/31 16:08:45;;;;;;;6.68;4.70;;;;;;;;;;5094203;28;20127;-64
2022/07/31 16:11:12;;;;;;;6.50;4.22;;;;;;;;;;5094315;28;20099;-63
2022/07/31 16:13:38;;;;;;;7.75;4.78;;;;;;;;;;5093961;28;20099;-63
2022/07/31 16:16:05;;;;;;;7.07;4.88;;;;;;;;;;5094234;28;20040;-64
2022/07/31 16:18:31;;;;;;;7.05;4.75;;;;;;;;;;5093284;28;20545;-63
2022/07/31 16:20:57;;;;;;;8.63;4.90;;;;;;;;;;5094070;28;20093;-63
2022/07/31 16:23:26;;;;;;;7.00;4.70;;;;;;;;;;5094100;28;20036;-65
2022/07/31 16:25:52;;;;;;;6.80;4.60;;;;;;;;;;5093793;28;20016;-64
2022/07/31 16:28:18;;;;;;;6.55;4.18;;;;;;;;;;5092662;28;20032;-64
2022/07/31 16:30:44;;;;;;;6.47;4.72;;;;;;;;;;5094033;28;20077;-64
2022/07/31 16:33:11;;;;;;;7.10;4.25;;;;;;;;;;5093566;28;20051;-64
2022/07/31 16:35:37;;;;;;;7.22;4.65;;;;;;;;;;5093939;28;20361;-63
2022/07/31 16:38:04;;;;;;;7.00;4.40;;;;;;;;;;5093986;28;20096;-65
2022/07/31 16:40:32;;;;;;;5.72;3.53;;;;;;;;;;5093782;28;20031;-65